sensor_id;sensor_type;location;lat;lon;timestamp;P1;durP1;ratioP1;P2;durP2;ratioP2
74793;SDS011;63320;50.768;6.724;2023-04-01T00:01:22;2.78;;;0.50;;
74793;SDS011;63320;50.768;6.724;2023-04-01T00:03:47;1.30;;;0.30;;
74793;SDS011;63320;50.768;6.724;2023-04-01T00:06:13;1.70;;;0.30;;
74793;SDS011;63320;50.768;6.724;2023-04-01T00:08:41;1.90;;;0.30;;
74793;SDS011;63320;50.768;6.724;2023-04-01T00:11:06;4.35;;;0.43;;
74793;SDS011;63320;50.768;6.724;2023-04-01T00:13:32;1.48;;;0.32;;
74793;SDS011;63320;50.768;6.724;2023-04-01T00:15:57;1.17;;;0.20;;
74793;SDS011;63320;50.768;6.724;2023-04-01T00:18:22;1.42;;;0.20;;
74793;SDS011;63320;50.768;6.724;2023-04-01T00:20:49;1.55;;;0.17;;
74793;SDS011;63320;50.768;6.724;2023-04-01T00:23:16;1.75;;;0.35;;
74793;SDS011;63320;50.768;6.724;2023-04-01T00:25:43;1.80;;;0.30;;
74793;SDS011;63320;50.768;6.724;2023-04-01T00:28:09;1.70;;;0.20;;
74793;SDS011;63320;50.768;6.724;2023-04-01T00:30:35;0.93;;;0.15;;
74793;SDS011;63320;50.768;6.724;2023-04-01T00:33:00;2.15;;;0.30;;
74793;SDS011;63320;50.768;6.724;2023-04-01T00:35:26;1.95;;;0.25;;
74793;SDS011;63320;50.768;6.724;2023-04-01T00:37:51;2.25;;;0.30;;
74793;SDS011;63320;50.768;6.724;2023-04-01T00:40:22;2.08;;;0.20;;
74793;SDS011;63320;50.768;6.724;2023-04-01T00:42:52;1.73;;;0.30;;
74793;SDS011;63320;50.768;6.724;2023-04-01T00:45:23;2.63;;;0.17;;
74793;SDS011;63320;50.768;6.724;2023-04-01T00:47:51;0.57;;;0.10;;
74793;SDS011;63320;50.768;6.724;2023-04-01T00:50:17;2.33;;;0.40;;
74793;SDS011;63320;50.768;6.724;2023-04-01T00:52:42;0.85;;;0.30;;
74793;SDS011;63320;50.768;6.724;2023-04-01T00:55:08;0.77;;;0.20;;
74793;SDS011;63320;50.768;6.724;2023-04-01T00:57:37;0.73;;;0.15;;
74793;SDS011;63320;50.768;6.724;2023-04-01T01:00:09;1.85;;;0.40;;
74793;SDS011;63320;50.768;6.724;2023-04-01T01:02:36;2.08;;;0.30;;
74793;SDS011;63320;50.768;6.724;2023-04-01T01:05:01;1.70;;;0.30;;
74793;SDS011;63320;50.768;6.724;2023-04-01T01:07:27;0.73;;;0.15;;
74793;SDS011;63320;50.768;6.724;2023-04-01T01:10:02;1.45;;;0.20;;
74793;SDS011;63320;50.768;6.724;2023-04-01T01:12:37;1.30;;;0.20;;
74793;SDS011;63320;50.768;6.724;2023-04-01T01:15:09;2.38;;;0.38;;
74793;SDS011;63320;50.768;6.724;2023-04-01T01:17:47;1.50;;;0.20;;
74793;SDS011;63320;50.768;6.724;2023-04-01T01:20:33;1.95;;;0.38;;
74793;SDS011;63320;50.768;6.724;2023-04-01T01:23:21;1.02;;;0.30;;
74793;SDS011;63320;50.768;6.724;2023-04-01T01:26:05;0.50;;;0.10;;
74793;SDS011;63320;50.768;6.724;2023-04-01T01:28:44;1.77;;;0.20;;
74793;SDS011;63320;50.768;6.724;2023-04-01T01:31:19;1.00;;;0.17;;
74793;SDS011;63320;50.768;6.724;2023-04-01T01:33:50;1.35;;;0.20;;
74793;SDS011;63320;50.768;6.724;2023-04-01T01:36:24;0.90;;;0.20;;
74793;SDS011;63320;50.768;6.724;2023-04-01T01:38:53;1.55;;;0.20;;
74793;SDS011;63320;50.768;6.724;2023-04-01T01:41:21;0.35;;;0.10;;
74793;SDS011;63320;50.768;6.724;2023-04-01T01:43:50;1.17;;;0.15;;
74793;SDS011;63320;50.768;6.724;2023-04-01T01:46:19;1.13;;;0.20;;
74793;SDS011;63320;50.768;6.724;2023-04-01T01:48:48;0.52;;;0.10;;
74793;SDS011;63320;50.768;6.724;2023-04-01T01:51:14;0.95;;;0.22;;
74793;SDS011;63320;50.768;6.724;2023-04-01T01:53:42;2.08;;;0.40;;
74793;SDS011;63320;50.768;6.724;2023-04-01T01:56:07;0.63;;;0.10;;
74793;SDS011;63320;50.768;6.724;2023-04-01T01:58:35;1.75;;;0.17;;
74793;SDS011;63320;50.768;6.724;2023-04-01T02:01:04;0.68;;;0.20;;
74793;SDS011;63320;50.768;6.724;2023-04-01T02:03:33;1.65;;;0.20;;
74793;SDS011;63320;50.768;6.724;2023-04-01T02:06:01;1.55;;;0.20;;
74793;SDS011;63320;50.768;6.724;2023-04-01T02:08:31;2.08;;;0.20;;
74793;SDS011;63320;50.768;6.724;2023-04-01T02:13:31;0.00;;;0.00;;
74793;SDS011;63320;50.768;6.724;2023-04-01T02:16:02;1.65;;;0.10;;
74793;SDS011;63320;50.768;6.724;2023-04-01T02:18:33;1.02;;;0.13;;
74793;SDS011;63320;50.768;6.724;2023-04-01T02:21:01;0.98;;;0.20;;
74793;SDS011;63320;50.768;6.724;2023-04-01T02:23:29;0.68;;;0.10;;
74793;SDS011;63320;50.768;6.724;2023-04-01T02:25:55;0.70;;;0.10;;
74793;SDS011;63320;50.768;6.724;2023-04-01T02:28:22;1.85;;;0.25;;
74793;SDS011;63320;50.768;6.724;2023-04-01T02:30:49;1.27;;;0.08;;
74793;SDS011;63320;50.768;6.724;2023-04-01T02:33:15;0.10;;;0.10;;
74793;SDS011;63320;50.768;6.724;2023-04-01T02:35:42;2.38;;;0.20;;
74793;SDS011;63320;50.768;6.724;2023-04-01T02:38:07;0.20;;;0.00;;
74793;SDS011;63320;50.768;6.724;2023-04-01T02:40:43;0.88;;;0.10;;
74793;SDS011;63320;50.768;6.724;2023-04-01T02:43:10;0.82;;;0.10;;
74793;SDS011;63320;50.768;6.724;2023-04-01T02:45:37;0.35;;;0.10;;
74793;SDS011;63320;50.768;6.724;2023-04-01T02:48:02;1.17;;;0.10;;
74793;SDS011;63320;50.768;6.724;2023-04-01T02:50:28;0.98;;;0.20;;
74793;SDS011;63320;50.768;6.724;2023-04-01T02:52:53;0.22;;;0.00;;
74793;SDS011;63320;50.768;6.724;2023-04-01T02:55:19;1.10;;;0.32;;
74793;SDS011;63320;50.768;6.724;2023-04-01T02:57:44;0.75;;;0.20;;
74793;SDS011;63320;50.768;6.724;2023-04-01T03:00:10;0.25;;;0.00;;
74793;SDS011;63320;50.768;6.724;2023-04-01T03:02:38;0.75;;;0.10;;
74793;SDS011;63320;50.768;6.724;2023-04-01T03:05:03;0.43;;;0.15;;
74793;SDS011;63320;50.768;6.724;2023-04-01T03:07:29;0.88;;;0.10;;
74793;SDS011;63320;50.768;6.724;2023-04-01T03:09:55;1.15;;;0.25;;
74793;SDS011;63320;50.768;6.724;2023-04-01T03:12:20;2.38;;;0.10;;
74793;SDS011;63320;50.768;6.724;2023-04-01T03:14:45;0.28;;;0.00;;
74793;SDS011;63320;50.768;6.724;2023-04-01T03:17:11;0.15;;;0.00;;
74793;SDS011;63320;50.768;6.724;2023-04-01T03:19:37;0.70;;;0.10;;
74793;SDS011;63320;50.768;6.724;2023-04-01T03:22:03;1.73;;;0.10;;
74793;SDS011;63320;50.768;6.724;2023-04-01T03:24:28;0.77;;;0.30;;
74793;SDS011;63320;50.768;6.724;2023-04-01T03:26:53;0.40;;;0.05;;
74793;SDS011;63320;50.768;6.724;2023-04-01T03:29:19;1.95;;;0.13;;
74793;SDS011;63320;50.768;6.724;2023-04-01T03:31:44;0.63;;;0.20;;
74793;SDS011;63320;50.768;6.724;2023-04-01T03:34:09;0.38;;;0.20;;
74793;SDS011;63320;50.768;6.724;2023-04-01T03:36:36;0.47;;;0.10;;
74793;SDS011;63320;50.768;6.724;2023-04-01T03:39:01;0.98;;;0.20;;
74793;SDS011;63320;50.768;6.724;2023-04-01T03:41:27;0.13;;;0.10;;
74793;SDS011;63320;50.768;6.724;2023-04-01T03:43:52;0.00;;;0.00;;
74793;SDS011;63320;50.768;6.724;2023-04-01T03:46:18;0.22;;;0.00;;
74793;SDS011;63320;50.768;6.724;2023-04-01T03:48:44;0.45;;;0.00;;
74793;SDS011;63320;50.768;6.724;2023-04-01T03:51:09;0.08;;;0.00;;
74793;SDS011;63320;50.768;6.724;2023-04-01T03:53:36;0.50;;;0.00;;
74793;SDS011;63320;50.768;6.724;2023-04-01T03:56:03;0.28;;;0.13;;
74793;SDS011;63320;50.768;6.724;2023-04-01T03:58:29;0.00;;;0.00;;
74793;SDS011;63320;50.768;6.724;2023-04-01T04:00:54;0.60;;;0.10;;
74793;SDS011;63320;50.768;6.724;2023-04-01T04:03:19;0.43;;;0.10;;
74793;SDS011;63320;50.768;6.724;2023-04-01T04:05:48;1.25;;;0.10;;
74793;SDS011;63320;50.768;6.724;2023-04-01T04:08:14;0.60;;;0.10;;
74793;SDS011;63320;50.768;6.724;2023-04-01T04:10:40;0.30;;;0.10;;
74793;SDS011;63320;50.768;6.724;2023-04-01T04:13:06;0.85;;;0.10;;
74793;SDS011;63320;50.768;6.724;2023-04-01T04:15:31;1.35;;;0.10;;
74793;SDS011;63320;50.768;6.724;2023-04-01T04:17:57;0.35;;;0.10;;
74793;SDS011;63320;50.768;6.724;2023-04-01T04:20:22;1.55;;;0.10;;
74793;SDS011;63320;50.768;6.724;2023-04-01T04:22:47;0.95;;;0.10;;
74793;SDS011;63320;50.768;6.724;2023-04-01T04:25:13;0.30;;;0.15;;
74793;SDS011;63320;50.768;6.724;2023-04-01T04:27:39;1.30;;;0.28;;
74793;SDS011;63320;50.768;6.724;2023-04-01T04:30:05;0.55;;;0.03;;
74793;SDS011;63320;50.768;6.724;2023-04-01T04:32:32;1.50;;;0.20;;
74793;SDS011;63320;50.768;6.724;2023-04-01T04:34:57;2.92;;;0.90;;
74793;SDS011;63320;50.768;6.724;2023-04-01T04:37:23;1.48;;;0.50;;
74793;SDS011;63320;50.768;6.724;2023-04-01T04:39:48;1.85;;;0.77;;
74793;SDS011;63320;50.768;6.724;2023-04-01T04:42:14;2.00;;;0.73;;
74793;SDS011;63320;50.768;6.724;2023-04-01T04:44:40;0.85;;;0.40;;
74793;SDS011;63320;50.768;6.724;2023-04-01T04:47:06;0.28;;;0.20;;
74793;SDS011;63320;50.768;6.724;2023-04-01T04:49:31;0.03;;;0.03;;
74793;SDS011;63320;50.768;6.724;2023-04-01T04:51:57;0.30;;;0.30;;
74793;SDS011;63320;50.768;6.724;2023-04-01T04:54:22;1.80;;;0.20;;
74793;SDS011;63320;50.768;6.724;2023-04-01T04:56:47;0.52;;;0.15;;
74793;SDS011;63320;50.768;6.724;2023-04-01T04:59:13;1.27;;;0.20;;
74793;SDS011;63320;50.768;6.724;2023-04-01T05:01:39;0.00;;;0.00;;
74793;SDS011;63320;50.768;6.724;2023-04-01T05:04:05;0.95;;;0.00;;
74793;SDS011;63320;50.768;6.724;2023-04-01T05:06:30;0.28;;;0.03;;
74793;SDS011;63320;50.768;6.724;2023-04-01T05:08:55;0.00;;;0.00;;
74793;SDS011;63320;50.768;6.724;2023-04-01T05:11:21;0.10;;;0.10;;
74793;SDS011;63320;50.768;6.724;2023-04-01T05:13:46;0.20;;;0.10;;
74793;SDS011;63320;50.768;6.724;2023-04-01T05:16:13;0.40;;;0.10;;
74793;SDS011;63320;50.768;6.724;2023-04-01T05:18:41;2.13;;;0.20;;
74793;SDS011;63320;50.768;6.724;2023-04-01T05:21:08;0.32;;;0.03;;
74793;SDS011;63320;50.768;6.724;2023-04-01T05:23:35;0.40;;;0.20;;
74793;SDS011;63320;50.768;6.724;2023-04-01T05:26:02;2.83;;;0.40;;
74793;SDS011;63320;50.768;6.724;2023-04-01T05:28:28;0.50;;;0.20;;
74793;SDS011;63320;50.768;6.724;2023-04-01T05:30:53;0.52;;;0.20;;
74793;SDS011;63320;50.768;6.724;2023-04-01T05:33:18;1.33;;;0.10;;
74793;SDS011;63320;50.768;6.724;2023-04-01T05:35:45;0.20;;;0.10;;
74793;SDS011;63320;50.768;6.724;2023-04-01T05:38:10;0.43;;;0.10;;
74793;SDS011;63320;50.768;6.724;2023-04-01T05:40:36;0.17;;;0.10;;
74793;SDS011;63320;50.768;6.724;2023-04-01T05:43:01;1.08;;;0.30;;
74793;SDS011;63320;50.768;6.724;2023-04-01T05:45:27;1.08;;;0.20;;
74793;SDS011;63320;50.768;6.724;2023-04-01T05:47:52;0.90;;;0.17;;
74793;SDS011;63320;50.768;6.724;2023-04-01T05:50:17;0.65;;;0.20;;
74793;SDS011;63320;50.768;6.724;2023-04-01T05:52:44;1.38;;;0.40;;
74793;SDS011;63320;50.768;6.724;2023-04-01T05:55:10;0.93;;;0.25;;
74793;SDS011;63320;50.768;6.724;2023-04-01T05:57:36;1.20;;;0.30;;
74793;SDS011;63320;50.768;6.724;2023-04-01T06:00:01;0.80;;;0.30;;
74793;SDS011;63320;50.768;6.724;2023-04-01T06:02:27;1.15;;;0.20;;
74793;SDS011;63320;50.768;6.724;2023-04-01T06:04:53;1.88;;;0.30;;
74793;SDS011;63320;50.768;6.724;2023-04-01T06:07:27;0.35;;;0.20;;
74793;SDS011;63320;50.768;6.724;2023-04-01T06:09:55;0.85;;;0.30;;
74793;SDS011;63320;50.768;6.724;2023-04-01T06:12:29;1.15;;;0.30;;
74793;SDS011;63320;50.768;6.724;2023-04-01T06:15:09;2.10;;;0.40;;
74793;SDS011;63320;50.768;6.724;2023-04-01T06:17:46;1.38;;;0.57;;
74793;SDS011;63320;50.768;6.724;2023-04-01T06:20:23;1.90;;;0.60;;
74793;SDS011;63320;50.768;6.724;2023-04-01T06:23:04;2.22;;;0.50;;
74793;SDS011;63320;50.768;6.724;2023-04-01T06:25:52;2.70;;;1.00;;
74793;SDS011;63320;50.768;6.724;2023-04-01T06:31:19;1.70;;;0.60;;
74793;SDS011;63320;50.768;6.724;2023-04-01T06:33:55;2.47;;;0.70;;
74793;SDS011;63320;50.768;6.724;2023-04-01T06:36:56;2.00;;;0.73;;
74793;SDS011;63320;50.768;6.724;2023-04-01T06:39:40;2.08;;;0.55;;
74793;SDS011;63320;50.768;6.724;2023-04-01T06:42:29;2.38;;;0.70;;
74793;SDS011;63320;50.768;6.724;2023-04-01T06:45:03;1.38;;;0.40;;
74793;SDS011;63320;50.768;6.724;2023-04-01T06:47:42;2.53;;;0.63;;
74793;SDS011;63320;50.768;6.724;2023-04-01T06:50:19;2.78;;;0.65;;
74793;SDS011;63320;50.768;6.724;2023-04-01T06:52:54;1.20;;;0.47;;
74793;SDS011;63320;50.768;6.724;2023-04-01T06:57:59;2.28;;;0.52;;
74793;SDS011;63320;50.768;6.724;2023-04-01T07:00:29;1.63;;;0.52;;
74793;SDS011;63320;50.768;6.724;2023-04-01T07:03:00;1.50;;;0.60;;
74793;SDS011;63320;50.768;6.724;2023-04-01T07:05:31;1.67;;;0.65;;
74793;SDS011;63320;50.768;6.724;2023-04-01T07:07:59;1.13;;;0.40;;
74793;SDS011;63320;50.768;6.724;2023-04-01T07:10:31;1.20;;;0.50;;
74793;SDS011;63320;50.768;6.724;2023-04-01T07:13:02;1.33;;;0.40;;
74793;SDS011;63320;50.768;6.724;2023-04-01T07:15:33;1.88;;;0.47;;
74793;SDS011;63320;50.768;6.724;2023-04-01T07:18:03;3.17;;;0.50;;
74793;SDS011;63320;50.768;6.724;2023-04-01T07:20:35;2.25;;;0.70;;
74793;SDS011;63320;50.768;6.724;2023-04-01T07:23:03;1.02;;;0.52;;
74793;SDS011;63320;50.768;6.724;2023-04-01T07:25:33;1.33;;;0.50;;
74793;SDS011;63320;50.768;6.724;2023-04-01T07:28:03;0.65;;;0.47;;
74793;SDS011;63320;50.768;6.724;2023-04-01T07:30:34;1.50;;;0.45;;
74793;SDS011;63320;50.768;6.724;2023-04-01T07:33:11;0.85;;;0.50;;
74793;SDS011;63320;50.768;6.724;2023-04-01T07:35:43;1.25;;;0.60;;
74793;SDS011;63320;50.768;6.724;2023-04-01T07:38:18;1.25;;;0.50;;
74793;SDS011;63320;50.768;6.724;2023-04-01T07:40:52;1.27;;;0.38;;
74793;SDS011;63320;50.768;6.724;2023-04-01T07:43:32;1.65;;;0.35;;
74793;SDS011;63320;50.768;6.724;2023-04-01T07:46:11;0.85;;;0.30;;
74793;SDS011;63320;50.768;6.724;2023-04-01T07:48:47;0.68;;;0.30;;
74793;SDS011;63320;50.768;6.724;2023-04-01T07:51:20;1.00;;;0.40;;
74793;SDS011;63320;50.768;6.724;2023-04-01T07:53:53;0.93;;;0.30;;
74793;SDS011;63320;50.768;6.724;2023-04-01T07:56:30;1.98;;;0.52;;
74793;SDS011;63320;50.768;6.724;2023-04-01T07:59:06;1.08;;;0.10;;
74793;SDS011;63320;50.768;6.724;2023-04-01T08:01:41;0.95;;;0.30;;
74793;SDS011;63320;50.768;6.724;2023-04-01T08:07:05;0.52;;;0.20;;
74793;SDS011;63320;50.768;6.724;2023-04-01T08:09:36;0.40;;;0.22;;
74793;SDS011;63320;50.768;6.724;2023-04-01T08:12:13;1.08;;;0.38;;
74793;SDS011;63320;50.768;6.724;2023-04-01T08:14:51;0.25;;;0.25;;
74793;SDS011;63320;50.768;6.724;2023-04-01T08:17:22;0.32;;;0.22;;
74793;SDS011;63320;50.768;6.724;2023-04-01T08:19:56;0.73;;;0.30;;
74793;SDS011;63320;50.768;6.724;2023-04-01T08:22:30;0.35;;;0.20;;
74793;SDS011;63320;50.768;6.724;2023-04-01T08:25:02;1.15;;;0.28;;
74793;SDS011;63320;50.768;6.724;2023-04-01T08:27:31;0.45;;;0.20;;
74793;SDS011;63320;50.768;6.724;2023-04-01T08:30:04;0.77;;;0.28;;
74793;SDS011;63320;50.768;6.724;2023-04-01T08:32:39;0.95;;;0.43;;
74793;SDS011;63320;50.768;6.724;2023-04-01T08:35:08;1.15;;;0.38;;
74793;SDS011;63320;50.768;6.724;2023-04-01T08:37:43;0.60;;;0.35;;
74793;SDS011;63320;50.768;6.724;2023-04-01T08:40:16;0.55;;;0.20;;
74793;SDS011;63320;50.768;6.724;2023-04-01T08:42:57;1.08;;;0.40;;
74793;SDS011;63320;50.768;6.724;2023-04-01T08:48:42;0.93;;;0.40;;
74793;SDS011;63320;50.768;6.724;2023-04-01T08:51:36;2.15;;;0.40;;
74793;SDS011;63320;50.768;6.724;2023-04-01T08:54:31;1.33;;;0.52;;
74793;SDS011;63320;50.768;6.724;2023-04-01T08:57:07;1.30;;;0.40;;
74793;SDS011;63320;50.768;6.724;2023-04-01T08:59:44;1.05;;;0.43;;
74793;SDS011;63320;50.768;6.724;2023-04-01T09:02:31;0.75;;;0.30;;
74793;SDS011;63320;50.768;6.724;2023-04-01T09:05:21;0.50;;;0.40;;
74793;SDS011;63320;50.768;6.724;2023-04-01T09:07:56;0.73;;;0.40;;
74793;SDS011;63320;50.768;6.724;2023-04-01T09:10:34;0.20;;;0.20;;
74793;SDS011;63320;50.768;6.724;2023-04-01T09:13:23;1.63;;;0.50;;
74793;SDS011;63320;50.768;6.724;2023-04-01T09:16:16;0.45;;;0.20;;
74793;SDS011;63320;50.768;6.724;2023-04-01T09:21:51;2.17;;;0.40;;
74793;SDS011;63320;50.768;6.724;2023-04-01T09:24:26;0.65;;;0.35;;
74793;SDS011;63320;50.768;6.724;2023-04-01T09:27:04;1.15;;;0.32;;
74793;SDS011;63320;50.768;6.724;2023-04-01T09:29:42;2.90;;;0.40;;
74793;SDS011;63320;50.768;6.724;2023-04-01T09:32:26;1.23;;;0.50;;
74793;SDS011;63320;50.768;6.724;2023-04-01T09:35:11;1.60;;;0.40;;
74793;SDS011;63320;50.768;6.724;2023-04-01T09:37:51;0.65;;;0.40;;
74793;SDS011;63320;50.768;6.724;2023-04-01T09:40:18;1.17;;;0.50;;
74793;SDS011;63320;50.768;6.724;2023-04-01T09:43:01;1.17;;;0.60;;
74793;SDS011;63320;50.768;6.724;2023-04-01T09:45:41;0.57;;;0.40;;
74793;SDS011;63320;50.768;6.724;2023-04-01T09:48:21;0.88;;;0.40;;
74793;SDS011;63320;50.768;6.724;2023-04-01T09:51:02;0.63;;;0.50;;
74793;SDS011;63320;50.768;6.724;2023-04-01T10:02:07;1.15;;;0.50;;
74793;SDS011;63320;50.768;6.724;2023-04-01T10:05:06;1.10;;;0.50;;
74793;SDS011;63320;50.768;6.724;2023-04-01T10:07:56;0.82;;;0.50;;
74793;SDS011;63320;50.768;6.724;2023-04-01T10:10:57;0.45;;;0.30;;
74793;SDS011;63320;50.768;6.724;2023-04-01T10:13:42;0.95;;;0.43;;
74793;SDS011;63320;50.768;6.724;2023-04-01T10:16:39;2.75;;;0.32;;
74793;SDS011;63320;50.768;6.724;2023-04-01T10:19:39;1.38;;;0.50;;
74793;SDS011;63320;50.768;6.724;2023-04-01T10:22:17;2.85;;;0.70;;
74793;SDS011;63320;50.768;6.724;2023-04-01T10:30:41;0.57;;;0.32;;
74793;SDS011;63320;50.768;6.724;2023-04-01T10:33:38;0.40;;;0.30;;
74793;SDS011;63320;50.768;6.724;2023-04-01T10:48:23;1.15;;;0.43;;
74793;SDS011;63320;50.768;6.724;2023-04-01T10:51:16;0.68;;;0.30;;
74793;SDS011;63320;50.768;6.724;2023-04-01T10:56:46;1.63;;;0.50;;
74793;SDS011;63320;50.768;6.724;2023-04-01T10:59:33;1.52;;;0.52;;
74793;SDS011;63320;50.768;6.724;2023-04-01T11:20:54;0.88;;;0.47;;
74793;SDS011;63320;50.768;6.724;2023-04-01T11:23:43;1.30;;;0.60;;
74793;SDS011;63320;50.768;6.724;2023-04-01T11:26:17;0.80;;;0.45;;
74793;SDS011;63320;50.768;6.724;2023-04-01T11:29:09;1.20;;;0.60;;
74793;SDS011;63320;50.768;6.724;2023-04-01T11:31:53;1.15;;;0.50;;
74793;SDS011;63320;50.768;6.724;2023-04-01T11:34:35;0.40;;;0.32;;
74793;SDS011;63320;50.768;6.724;2023-04-01T11:37:19;1.10;;;0.40;;
74793;SDS011;63320;50.768;6.724;2023-04-01T11:39:56;0.75;;;0.40;;
74793;SDS011;63320;50.768;6.724;2023-04-01T11:42:30;1.70;;;0.57;;
74793;SDS011;63320;50.768;6.724;2023-04-01T11:45:10;1.02;;;0.55;;
74793;SDS011;63320;50.768;6.724;2023-04-01T11:47:52;0.55;;;0.40;;
74793;SDS011;63320;50.768;6.724;2023-04-01T11:50:32;1.42;;;0.35;;
74793;SDS011;63320;50.768;6.724;2023-04-01T11:53:16;1.55;;;0.50;;
74793;SDS011;63320;50.768;6.724;2023-04-01T11:55:55;1.55;;;0.70;;
74793;SDS011;63320;50.768;6.724;2023-04-01T11:58:34;0.73;;;0.50;;
74793;SDS011;63320;50.768;6.724;2023-04-01T12:01:14;2.10;;;0.65;;
74793;SDS011;63320;50.768;6.724;2023-04-01T12:07:02;0.98;;;0.50;;
74793;SDS011;63320;50.768;6.724;2023-04-01T12:09:37;1.27;;;0.73;;
74793;SDS011;63320;50.768;6.724;2023-04-01T12:12:14;0.85;;;0.60;;
74793;SDS011;63320;50.768;6.724;2023-04-01T12:14:50;1.10;;;0.45;;
74793;SDS011;63320;50.768;6.724;2023-04-01T12:17:27;0.80;;;0.40;;
74793;SDS011;63320;50.768;6.724;2023-04-01T12:20:01;1.08;;;0.40;;
74793;SDS011;63320;50.768;6.724;2023-04-01T12:22:41;1.30;;;0.60;;
74793;SDS011;63320;50.768;6.724;2023-04-01T12:25:18;0.75;;;0.50;;
74793;SDS011;63320;50.768;6.724;2023-04-01T12:27:54;0.70;;;0.50;;
74793;SDS011;63320;50.768;6.724;2023-04-01T12:30:45;0.93;;;0.40;;
74793;SDS011;63320;50.768;6.724;2023-04-01T12:33:25;1.15;;;0.45;;
74793;SDS011;63320;50.768;6.724;2023-04-01T12:36:10;2.13;;;0.50;;
74793;SDS011;63320;50.768;6.724;2023-04-01T12:38:48;1.42;;;0.50;;
74793;SDS011;63320;50.768;6.724;2023-04-01T12:41:24;0.77;;;0.40;;
74793;SDS011;63320;50.768;6.724;2023-04-01T12:44:04;1.20;;;0.60;;
74793;SDS011;63320;50.768;6.724;2023-04-01T12:46:45;3.00;;;0.80;;
74793;SDS011;63320;50.768;6.724;2023-04-01T12:49:34;1.45;;;0.70;;
74793;SDS011;63320;50.768;6.724;2023-04-01T12:52:20;1.77;;;0.70;;
74793;SDS011;63320;50.768;6.724;2023-04-01T12:55:15;0.95;;;0.47;;
74793;SDS011;63320;50.768;6.724;2023-04-01T13:01:04;0.65;;;0.50;;
74793;SDS011;63320;50.768;6.724;2023-04-01T13:03:54;0.75;;;0.40;;
74793;SDS011;63320;50.768;6.724;2023-04-01T13:06:31;1.88;;;0.60;;
74793;SDS011;63320;50.768;6.724;2023-04-01T13:09:10;1.40;;;0.80;;
74793;SDS011;63320;50.768;6.724;2023-04-01T13:11:49;0.77;;;0.50;;
74793;SDS011;63320;50.768;6.724;2023-04-01T13:14:29;1.10;;;0.60;;
74793;SDS011;63320;50.768;6.724;2023-04-01T13:17:07;1.67;;;0.50;;
74793;SDS011;63320;50.768;6.724;2023-04-01T13:19:40;2.22;;;0.50;;
74793;SDS011;63320;50.768;6.724;2023-04-01T13:22:14;1.50;;;0.60;;
74793;SDS011;63320;50.768;6.724;2023-04-01T13:24:46;0.55;;;0.40;;
74793;SDS011;63320;50.768;6.724;2023-04-01T13:27:20;1.23;;;0.60;;
74793;SDS011;63320;50.768;6.724;2023-04-01T13:29:55;1.00;;;0.50;;
74793;SDS011;63320;50.768;6.724;2023-04-01T13:32:29;0.93;;;0.45;;
74793;SDS011;63320;50.768;6.724;2023-04-01T13:35:05;2.42;;;1.08;;
74793;SDS011;63320;50.768;6.724;2023-04-01T13:37:44;2.63;;;0.90;;
74793;SDS011;63320;50.768;6.724;2023-04-01T13:40:26;1.00;;;0.60;;
74793;SDS011;63320;50.768;6.724;2023-04-01T13:43:01;1.35;;;0.52;;
74793;SDS011;63320;50.768;6.724;2023-04-01T13:45:30;1.50;;;0.80;;
74793;SDS011;63320;50.768;6.724;2023-04-01T13:48:18;1.40;;;0.80;;
74793;SDS011;63320;50.768;6.724;2023-04-01T13:51:08;1.13;;;0.70;;
74793;SDS011;63320;50.768;6.724;2023-04-01T13:56:41;1.88;;;0.70;;
74793;SDS011;63320;50.768;6.724;2023-04-01T13:59:31;3.60;;;0.70;;
74793;SDS011;63320;50.768;6.724;2023-04-01T14:02:17;2.03;;;0.95;;
74793;SDS011;63320;50.768;6.724;2023-04-01T14:07:32;2.28;;;0.80;;
74793;SDS011;63320;50.768;6.724;2023-04-01T14:10:16;2.78;;;0.80;;
74793;SDS011;63320;50.768;6.724;2023-04-01T14:12:49;1.73;;;0.70;;
74793;SDS011;63320;50.768;6.724;2023-04-01T14:15:35;1.60;;;0.70;;
74793;SDS011;63320;50.768;6.724;2023-04-01T14:18:16;1.85;;;0.98;;
74793;SDS011;63320;50.768;6.724;2023-04-01T14:20:57;2.28;;;0.70;;
74793;SDS011;63320;50.768;6.724;2023-04-01T14:23:58;2.60;;;1.23;;
74793;SDS011;63320;50.768;6.724;2023-04-01T14:26:35;1.60;;;0.80;;
74793;SDS011;63320;50.768;6.724;2023-04-01T14:29:23;1.92;;;0.80;;
74793;SDS011;63320;50.768;6.724;2023-04-01T14:32:00;1.30;;;0.70;;
74793;SDS011;63320;50.768;6.724;2023-04-01T14:34:43;1.23;;;0.60;;
74793;SDS011;63320;50.768;6.724;2023-04-01T14:37:29;1.60;;;0.65;;
74793;SDS011;63320;50.768;6.724;2023-04-01T14:40:19;1.40;;;0.80;;
74793;SDS011;63320;50.768;6.724;2023-04-01T14:42:55;1.30;;;0.65;;
74793;SDS011;63320;50.768;6.724;2023-04-01T14:45:45;3.55;;;1.33;;
74793;SDS011;63320;50.768;6.724;2023-04-01T14:48:25;1.90;;;0.85;;
74793;SDS011;63320;50.768;6.724;2023-04-01T14:50:55;3.63;;;1.35;;
74793;SDS011;63320;50.768;6.724;2023-04-01T14:53:29;0.70;;;0.50;;
74793;SDS011;63320;50.768;6.724;2023-04-01T14:58:40;0.68;;;0.50;;
74793;SDS011;63320;50.768;6.724;2023-04-01T15:01:11;2.63;;;0.77;;
74793;SDS011;63320;50.768;6.724;2023-04-01T15:03:51;1.92;;;0.95;;
74793;SDS011;63320;50.768;6.724;2023-04-01T15:09:13;2.30;;;0.90;;
74793;SDS011;63320;50.768;6.724;2023-04-01T15:11:48;2.15;;;0.68;;
74793;SDS011;63320;50.768;6.724;2023-04-01T15:14:28;1.38;;;0.40;;
74793;SDS011;63320;50.768;6.724;2023-04-01T15:17:19;1.05;;;0.60;;
74793;SDS011;63320;50.768;6.724;2023-04-01T15:20:18;1.02;;;0.60;;
74793;SDS011;63320;50.768;6.724;2023-04-01T15:23:09;1.48;;;0.70;;
74793;SDS011;63320;50.768;6.724;2023-04-01T15:25:48;0.82;;;0.50;;
74793;SDS011;63320;50.768;6.724;2023-04-01T15:28:23;0.93;;;0.50;;
74793;SDS011;63320;50.768;6.724;2023-04-01T15:30:55;0.82;;;0.50;;
74793;SDS011;63320;50.768;6.724;2023-04-01T15:33:30;2.10;;;0.73;;
74793;SDS011;63320;50.768;6.724;2023-04-01T15:36:07;0.50;;;0.40;;
74793;SDS011;63320;50.768;6.724;2023-04-01T15:38:46;1.95;;;0.50;;
74793;SDS011;63320;50.768;6.724;2023-04-01T15:41:16;2.25;;;0.90;;
74793;SDS011;63320;50.768;6.724;2023-04-01T15:43:48;1.13;;;0.52;;
74793;SDS011;63320;50.768;6.724;2023-04-01T15:46:18;1.58;;;0.80;;
74793;SDS011;63320;50.768;6.724;2023-04-01T15:49:02;1.63;;;0.70;;
74793;SDS011;63320;50.768;6.724;2023-04-01T15:51:41;1.67;;;0.75;;
74793;SDS011;63320;50.768;6.724;2023-04-01T15:54:21;1.30;;;0.65;;
74793;SDS011;63320;50.768;6.724;2023-04-01T15:57:11;0.85;;;0.47;;
74793;SDS011;63320;50.768;6.724;2023-04-01T15:59:54;1.00;;;0.45;;
74793;SDS011;63320;50.768;6.724;2023-04-01T16:02:31;0.43;;;0.30;;
74793;SDS011;63320;50.768;6.724;2023-04-01T16:05:00;1.05;;;0.50;;
74793;SDS011;63320;50.768;6.724;2023-04-01T16:07:44;0.70;;;0.40;;
74793;SDS011;63320;50.768;6.724;2023-04-01T16:10:27;1.13;;;0.60;;
74793;SDS011;63320;50.768;6.724;2023-04-01T16:13:17;1.40;;;0.60;;
74793;SDS011;63320;50.768;6.724;2023-04-01T16:15:50;1.17;;;0.50;;
74793;SDS011;63320;50.768;6.724;2023-04-01T16:18:34;1.52;;;0.60;;
74793;SDS011;63320;50.768;6.724;2023-04-01T16:21:08;1.42;;;0.60;;
74793;SDS011;63320;50.768;6.724;2023-04-01T16:23:42;0.98;;;0.40;;
74793;SDS011;63320;50.768;6.724;2023-04-01T16:26:15;1.55;;;0.70;;
74793;SDS011;63320;50.768;6.724;2023-04-01T16:28:48;1.77;;;0.60;;
74793;SDS011;63320;50.768;6.724;2023-04-01T16:31:25;1.73;;;0.63;;
74793;SDS011;63320;50.768;6.724;2023-04-01T16:33:58;1.75;;;0.80;;
74793;SDS011;63320;50.768;6.724;2023-04-01T16:36:28;1.67;;;0.70;;
74793;SDS011;63320;50.768;6.724;2023-04-01T16:39:08;1.13;;;0.57;;
74793;SDS011;63320;50.768;6.724;2023-04-01T16:41:47;1.05;;;0.65;;
74793;SDS011;63320;50.768;6.724;2023-04-01T16:44:17;1.95;;;0.65;;
74793;SDS011;63320;50.768;6.724;2023-04-01T16:46:45;1.60;;;0.60;;
74793;SDS011;63320;50.768;6.724;2023-04-01T16:49:17;1.17;;;0.68;;
74793;SDS011;63320;50.768;6.724;2023-04-01T16:51:52;1.40;;;0.70;;